createdAt,value
2019-05-30T00:04:31.497Z,1.93
2019-05-30T00:09:35.174Z,2.03
2019-05-30T00:14:38.869Z,2.53
2019-05-30T00:19:42.542Z,2.10
2019-05-30T00:24:46.663Z,2.07
2019-05-30T00:29:50.549Z,2.13
2019-05-30T00:34:55.546Z,2.20
2019-05-30T00:39:59.879Z,2.13
2019-05-30T00:45:19.603Z,2.37
2019-05-30T00:50:09.492Z,1.90
2019-05-30T00:55:13.390Z,2.20
2019-05-30T01:00:18.333Z,2.27
2019-05-30T01:05:22.050Z,2.50
2019-05-30T01:10:25.759Z,2.30
2019-05-30T01:15:29.454Z,2.43
2019-05-30T01:20:33.192Z,2.97
2019-05-30T01:25:37.194Z,2.93
2019-05-30T01:30:41.017Z,2.70
2019-05-30T01:35:44.690Z,2.60
2019-05-30T01:40:48.437Z,2.17
2019-05-30T01:45:52.422Z,2.00
2019-05-30T01:50:56.086Z,2.50
2019-05-30T01:56:00.688Z,2.20
2019-05-30T02:01:19.077Z,2.30
2019-05-30T02:06:45.767Z,2.53
2019-05-30T02:11:49.823Z,2.20
2019-05-30T02:16:54.488Z,2.20
2019-05-30T02:21:58.191Z,2.33
2019-05-30T02:27:02.227Z,2.03
2019-05-30T02:32:07.041Z,2.33
2019-05-30T02:37:12.768Z,2.33
2019-05-30T02:42:16.480Z,2.03
2019-05-30T02:47:22.465Z,2.23
2019-05-30T02:52:25.523Z,2.50
2019-05-30T02:57:29.256Z,2.70
2019-05-30T03:02:32.935Z,2.37
2019-05-30T03:07:36.744Z,2.60
2019-05-30T03:12:40.621Z,2.43
2019-05-30T03:17:44.298Z,2.10
2019-05-30T03:22:47.966Z,2.20
2019-05-30T03:27:51.732Z,1.93
2019-05-30T03:33:15.837Z,2.30
2019-05-30T03:38:01.006Z,2.30
2019-05-30T03:43:05.977Z,2.60
2019-05-30T03:48:15.582Z,2.10
2019-05-30T03:53:19.163Z,2.30
2019-05-30T03:58:31.858Z,2.30
2019-05-30T04:03:41.026Z,2.40
2019-05-30T04:08:48.422Z,2.20
2019-05-30T04:13:56.160Z,2.10
2019-05-30T04:18:59.883Z,2.03
2019-05-30T04:24:07.308Z,2.20
2019-05-30T04:29:12.206Z,2.00
2019-05-30T04:34:17.706Z,2.30
2019-05-30T04:39:21.979Z,2.00
2019-05-30T04:44:25.668Z,1.93
2019-05-30T04:49:29.404Z,1.70
2019-05-30T04:54:33.156Z,2.37
2019-05-30T04:59:36.868Z,1.77
2019-05-30T05:04:40.591Z,2.00
2019-05-30T05:09:44.874Z,1.80
2019-05-30T05:14:48.805Z,1.90
2019-05-30T05:19:52.790Z,1.50
2019-05-30T05:24:56.736Z,2.13
2019-05-30T05:30:00.667Z,2.13
2019-05-30T05:35:04.645Z,1.97
2019-05-30T05:40:08.400Z,1.80
2019-05-30T05:45:12.592Z,1.70
2019-05-30T05:50:16.739Z,1.47
2019-05-30T05:55:20.920Z,1.50
2019-05-30T06:00:25.290Z,2.30
2019-05-30T06:05:29.083Z,1.90
2019-05-30T06:10:33.262Z,1.70
2019-05-30T06:15:37.262Z,1.60
2019-05-30T06:20:42.695Z,1.80
2019-05-30T06:25:46.361Z,1.33
2019-05-30T06:30:50.110Z,1.43
2019-05-30T06:35:53.851Z,1.70
2019-05-30T06:40:57.530Z,1.60
2019-05-30T06:46:01.201Z,1.40
2019-05-30T06:51:04.963Z,1.40
2019-05-30T06:56:08.666Z,1.30
2019-05-30T07:01:12.835Z,1.50
2019-05-30T07:06:16.918Z,1.40
2019-05-30T07:11:20.797Z,1.40
2019-05-30T07:16:25.346Z,1.40
2019-05-30T07:21:29.780Z,1.57
2019-05-30T07:26:34.050Z,1.30
2019-05-30T07:31:37.847Z,1.20
2019-05-30T07:36:41.748Z,0.97
2019-05-30T07:41:45.444Z,1.13
2019-05-30T07:46:49.148Z,1.50
2019-05-30T07:51:53.053Z,1.10
2019-05-30T07:56:57.231Z,0.67
2019-05-30T08:02:00.991Z,0.70
2019-05-30T08:07:05.117Z,1.10
2019-05-30T08:12:09.666Z,0.90
2019-05-30T08:17:14.402Z,0.70
2019-05-30T08:28:42.732Z,1.00
2019-05-30T08:34:33.134Z,0.70
2019-05-30T08:39:20.129Z,1.00
2019-05-30T08:44:23.858Z,0.90
2019-05-30T08:49:27.851Z,0.90
2019-05-30T08:54:32.216Z,0.97
2019-05-30T08:59:36.686Z,0.90
2019-05-30T09:04:40.529Z,0.80
2019-05-30T09:09:44.799Z,0.77
2019-05-30T09:14:48.486Z,1.00
2019-05-30T09:19:52.191Z,0.90
2019-05-30T09:24:55.927Z,1.22
2019-05-30T09:29:59.650Z,0.80
2019-05-30T09:35:03.554Z,2.22
2019-05-30T09:40:08.505Z,1.10
2019-05-30T09:45:14.522Z,0.88
2019-05-30T09:50:18.479Z,0.75
2019-05-30T09:55:22.836Z,0.90
2019-05-30T10:00:26.742Z,0.90
2019-05-30T10:05:30.464Z,0.85
2019-05-30T10:10:34.416Z,0.95
2019-05-30T10:15:38.464Z,0.90
2019-05-30T10:20:42.476Z,1.30
2019-05-30T10:25:47.837Z,0.82
2019-05-30T10:30:57.341Z,1.02
2019-05-30T10:36:07.271Z,0.80
2019-05-30T10:41:11.138Z,0.90
2019-05-30T10:46:20.791Z,1.05
2019-05-30T10:51:24.825Z,0.70
2019-05-30T10:56:28.669Z,0.80
2019-05-30T11:01:33.127Z,0.90
2019-05-30T11:07:06.820Z,0.70
2019-05-30T11:11:55.004Z,0.88
2019-05-30T11:16:58.706Z,1.10
2019-05-30T11:22:02.857Z,0.72
2019-05-30T11:27:06.987Z,0.60
2019-05-30T11:32:10.940Z,0.80
2019-05-30T11:37:18.808Z,0.80
2019-05-30T11:42:20.749Z,0.70
2019-05-30T11:47:27.112Z,0.80
2019-05-30T11:52:31.177Z,0.70
2019-05-30T11:57:38.446Z,0.70
2019-05-30T12:02:43.194Z,1.00
2019-05-30T12:07:50.599Z,1.05
2019-05-30T12:12:57.225Z,0.80
2019-05-30T12:18:07.897Z,0.70
2019-05-30T12:23:13.317Z,0.70
2019-05-30T12:28:19.023Z,0.75
2019-05-30T12:33:23.133Z,0.85
2019-05-30T12:38:29.013Z,0.80
2019-05-30T12:43:36.073Z,0.95
2019-05-30T12:48:41.818Z,0.68
2019-05-30T12:53:46.717Z,0.80
2019-05-30T12:58:51.689Z,0.80
2019-05-30T13:04:01.022Z,0.80
2019-05-30T13:09:09.053Z,0.75
2019-05-30T13:14:17.825Z,0.75
2019-05-30T13:19:24.857Z,0.80
2019-05-30T13:24:29.047Z,0.88
2019-05-30T13:29:33.898Z,0.88
2019-05-30T13:34:39.501Z,0.80
2019-05-30T13:39:43.563Z,0.88
2019-05-30T13:44:51.812Z,0.90
2019-05-30T13:49:56.399Z,0.90
2019-05-30T13:55:05.379Z,0.85
2019-05-30T14:00:10.750Z,0.93
2019-05-30T14:05:15.863Z,0.78
2019-05-30T14:10:19.780Z,1.12
2019-05-30T14:15:23.938Z,1.27
2019-05-30T14:20:27.696Z,1.00
2019-05-30T14:25:31.688Z,0.90
2019-05-30T14:30:35.406Z,0.90
2019-05-30T14:35:39.433Z,0.93
2019-05-30T14:40:45.305Z,1.15
2019-05-30T14:45:49.371Z,1.00
2019-05-30T14:50:53.086Z,1.00
2019-05-30T14:55:57.281Z,0.82
2019-05-30T15:01:01.125Z,0.90
2019-05-30T15:06:06.920Z,1.00
2019-05-30T15:11:13.650Z,0.80
2019-05-30T15:16:17.535Z,1.20
2019-05-30T15:21:21.473Z,1.12
2019-05-30T15:26:25.180Z,1.00
2019-05-30T15:31:28.922Z,1.17
2019-05-30T15:36:32.745Z,0.90
2019-05-30T15:41:36.735Z,0.70
2019-05-30T15:46:40.688Z,1.00
2019-05-30T15:51:44.379Z,1.02
2019-05-30T15:56:48.367Z,1.10
2019-05-30T16:01:52.124Z,1.02
2019-05-30T16:06:56.056Z,1.15
2019-05-30T16:11:59.790Z,0.90
2019-05-30T16:17:03.722Z,1.20
2019-05-30T16:22:07.739Z,1.10
2019-05-30T16:27:13.427Z,1.52
2019-05-30T16:32:19.174Z,0.78
2019-05-30T16:37:26.153Z,1.02
2019-05-30T16:42:30.951Z,1.32
2019-05-30T16:47:36.381Z,0.93
2019-05-30T16:52:41.272Z,1.07
2019-05-30T16:57:46.258Z,0.90
2019-05-30T17:02:50.307Z,1.20
2019-05-30T17:07:55.332Z,1.30
2019-05-30T17:13:00.763Z,0.98
2019-05-30T17:18:06.676Z,1.10
2019-05-30T17:23:13.943Z,1.37
2019-05-30T17:28:22.265Z,1.05
2019-05-30T17:33:28.264Z,1.10
2019-05-30T17:38:35.718Z,1.00
2019-05-30T17:43:43.122Z,0.90
2019-05-30T17:48:54.092Z,1.10
2019-05-30T17:53:59.923Z,1.00
2019-05-30T17:59:05.704Z,1.10
2019-05-30T18:04:12.100Z,1.20
2019-05-30T18:09:18.171Z,1.02
2019-05-30T18:14:25.058Z,1.00
2019-05-30T18:19:32.863Z,1.20
2019-05-30T18:24:36.834Z,1.17
2019-05-30T18:29:42.107Z,1.40
2019-05-30T18:34:47.100Z,1.27
2019-05-30T18:39:50.799Z,1.60
2019-05-30T18:44:55.244Z,2.15
2019-05-30T18:49:59.047Z,2.17
2019-05-30T18:55:05.421Z,2.90
2019-05-30T19:00:51.218Z,1.90
2019-05-30T19:05:55.501Z,2.70
2019-05-30T19:10:59.440Z,3.70
2019-05-30T19:16:03.313Z,3.60
2019-05-30T19:21:08.114Z,4.70
2019-05-30T19:26:12.151Z,3.67
2019-05-30T19:31:16.516Z,2.62
2019-05-30T19:36:20.275Z,2.70
2019-05-30T19:41:23.964Z,3.92
2019-05-30T19:46:28.050Z,4.75
2019-05-30T19:51:32.937Z,4.75
2019-05-30T19:56:40.156Z,5.50
2019-05-30T20:01:42.415Z,4.80
2019-05-30T20:06:46.085Z,5.50
2019-05-30T20:12:02.657Z,5.80
2019-05-30T20:16:55.486Z,5.10
2019-05-30T20:21:59.303Z,5.10
2019-05-30T20:27:03.055Z,5.43
2019-05-30T20:32:07.015Z,10.97
2019-05-30T20:37:10.677Z,5.20
2019-05-30T20:42:19.108Z,5.40
2019-05-30T20:47:19.803Z,4.67
2019-05-30T20:52:23.483Z,5.30
2019-05-30T20:57:27.199Z,4.70
2019-05-30T21:02:30.916Z,6.13
2019-05-30T21:07:35.854Z,4.57
2019-05-30T21:12:43.514Z,4.70
2019-05-30T21:17:46.386Z,5.20
2019-05-30T21:22:50.115Z,4.33
2019-05-30T21:27:53.793Z,3.53
2019-05-30T21:32:57.562Z,3.63
2019-05-30T21:38:01.457Z,3.30
2019-05-30T21:43:07.178Z,3.73
2019-05-30T21:48:10.805Z,3.80
2019-05-30T21:53:14.990Z,3.23
2019-05-30T21:58:18.698Z,3.43
2019-05-30T22:03:22.635Z,3.43
2019-05-30T22:08:26.321Z,3.10
2019-05-30T22:13:30.008Z,3.40
2019-05-30T22:18:33.698Z,3.73
2019-05-30T22:23:37.639Z,2.83
2019-05-30T22:28:42.260Z,3.27
2019-05-30T22:33:46.617Z,2.93
2019-05-30T22:38:50.987Z,3.00
2019-05-30T22:43:54.794Z,3.60
2019-05-30T22:48:58.507Z,3.37
2019-05-30T22:54:02.169Z,3.70
2019-05-30T22:59:06.041Z,2.73
2019-05-30T23:04:09.779Z,2.97
2019-05-30T23:09:14.008Z,2.40
2019-05-30T23:14:17.939Z,2.50
2019-05-30T23:19:21.835Z,2.67
2019-05-30T23:24:25.521Z,2.60
2019-05-30T23:29:30.622Z,2.70
2019-05-30T23:34:34.358Z,3.07
2019-05-30T23:39:38.065Z,3.10
2019-05-30T23:44:42.041Z,3.27
2019-05-30T23:49:45.972Z,3.37
2019-05-30T23:54:50.022Z,3.63
2019-05-30T23:59:54.798Z,3.10
